<?xml version="1.0" encoding="UTF-8" standalone="no" ?>
<gpx xmlns="http://www.topografix.com/GPX/1/1" xmlns:xsi="http://www.w3.org/2001/XMLSchema-instance" xsi:schemaLocation="http://www.topografix.com/GPX/1/1 http://www.topografix.com/GPX/1/1/gpx.xsd" version="1.1" creator="VisuGPX - https://www.visugpx.com">
  <metadata>
    <name>ESCAPADE-Pilat-Etape3-Boucles1, 2, 3, 4</name>
  </metadata>
  <trk>
    <name><![CDATA[Echappée des deux vallées]]></name>
    <extensions>
      <line xmlns="http://www.topografix.com/GPX/gpx_style/0/2">
        <color>00FF00</color>
        <width>4</width>
      </line>
    </extensions>
    <trkseg>
      <trkpt lat="45.3908" lon="4.481">
        <ele>1044</ele>
        <time>2021-06-09T16:55:57+02:00</time>
      </trkpt>
      <trkpt lat="45.39128" lon="4.48034">
        <ele>1047</ele>
        <time>2021-06-09T16:56:02+02:00</time>
      </trkpt>
      <trkpt lat="45.39165" lon="4.47969">
        <ele>1053</ele>
        <time>2021-06-09T16:56:07+02:00</time>
      </trkpt>
      <trkpt lat="45.39171" lon="4.47936">
        <ele>1055</ele>
        <time>2021-06-09T16:56:12+02:00</time>
      </trkpt>
      <trkpt lat="45.39178" lon="4.47775">
        <ele>1068</ele>
        <time>2021-06-09T16:56:17+02:00</time>
      </trkpt>
      <trkpt lat="45.39207" lon="4.4769">
        <ele>1073</ele>
        <time>2021-06-09T16:56:22+02:00</time>
      </trkpt>
      <trkpt lat="45.39221" lon="4.47669">
        <ele>1075</ele>
        <time>2021-06-09T16:56:27+02:00</time>
      </trkpt>
      <trkpt lat="45.39244" lon="4.47636">
        <ele>1078</ele>
        <time>2021-06-09T16:56:32+02:00</time>
      </trkpt>
      <trkpt lat="45.39302" lon="4.47596">
        <ele>1081</ele>
        <time>2021-06-09T16:56:37+02:00</time>
      </trkpt>
      <trkpt lat="45.39354" lon="4.47578">
        <ele>1081</ele>
        <time>2021-06-09T16:56:42+02:00</time>
      </trkpt>
      <trkpt lat="45.39498" lon="4.47552">
        <ele>1070</ele>
        <time>2021-06-09T16:56:47+02:00</time>
      </trkpt>
      <trkpt lat="45.39568" lon="4.47547">
        <ele>1074</ele>
        <time>2021-06-09T16:56:52+02:00</time>
      </trkpt>
      <trkpt lat="45.39699" lon="4.47535">
        <ele>1071</ele>
        <time>2021-06-09T16:56:57+02:00</time>
      </trkpt>
      <trkpt lat="45.39792" lon="4.4756">
        <ele>1060</ele>
        <time>2021-06-09T16:57:02+02:00</time>
      </trkpt>
      <trkpt lat="45.39929" lon="4.4764">
        <ele>1053</ele>
        <time>2021-06-09T16:57:07+02:00</time>
      </trkpt>
      <trkpt lat="45.40113" lon="4.47743">
        <ele>1058</ele>
        <time>2021-06-09T16:57:12+02:00</time>
      </trkpt>
      <trkpt lat="45.40289" lon="4.47749">
        <ele>1069</ele>
        <time>2021-06-09T16:57:17+02:00</time>
      </trkpt>
      <trkpt lat="45.40432" lon="4.4773">
        <ele>1075</ele>
        <time>2021-06-09T16:57:22+02:00</time>
      </trkpt>
      <trkpt lat="45.40503" lon="4.47738">
        <ele>1076</ele>
        <time>2021-06-09T16:57:27+02:00</time>
      </trkpt>
      <trkpt lat="45.40716" lon="4.47833">
        <ele>1084</ele>
        <time>2021-06-09T16:57:32+02:00</time>
      </trkpt>
      <trkpt lat="45.4085" lon="4.47957">
        <ele>1088</ele>
        <time>2021-06-09T16:57:37+02:00</time>
      </trkpt>
      <trkpt lat="45.4094" lon="4.47959">
        <ele>1080</ele>
        <time>2021-06-09T16:57:42+02:00</time>
      </trkpt>
      <trkpt lat="45.41092" lon="4.47891">
        <ele>1068</ele>
        <time>2021-06-09T16:57:47+02:00</time>
      </trkpt>
      <trkpt lat="45.41235" lon="4.48004">
        <ele>1048</ele>
        <time>2021-06-09T16:57:52+02:00</time>
      </trkpt>
      <trkpt lat="45.41333" lon="4.4808">
        <ele>1049</ele>
        <time>2021-06-09T16:57:57+02:00</time>
      </trkpt>
      <trkpt lat="45.41375" lon="4.48105">
        <ele>1051</ele>
        <time>2021-06-09T16:58:02+02:00</time>
      </trkpt>
      <trkpt lat="45.41415" lon="4.48112">
        <ele>1055</ele>
        <time>2021-06-09T16:58:07+02:00</time>
      </trkpt>
      <trkpt lat="45.41455" lon="4.48313">
        <ele>1070</ele>
        <time>2021-06-09T16:58:12+02:00</time>
      </trkpt>
      <trkpt lat="45.41475" lon="4.48462">
        <ele>1074</ele>
        <time>2021-06-09T16:58:17+02:00</time>
      </trkpt>
      <trkpt lat="45.41493" lon="4.48599">
        <ele>1079</ele>
        <time>2021-06-09T16:58:22+02:00</time>
      </trkpt>
      <trkpt lat="45.41511" lon="4.48633">
        <ele>1079</ele>
        <time>2021-06-09T16:58:27+02:00</time>
      </trkpt>
      <trkpt lat="45.41537" lon="4.4865">
        <ele>1079</ele>
        <time>2021-06-09T16:58:32+02:00</time>
      </trkpt>
      <trkpt lat="45.41555" lon="4.48743">
        <ele>1071</ele>
        <time>2021-06-09T16:58:37+02:00</time>
      </trkpt>
      <trkpt lat="45.41704" lon="4.48925">
        <ele>1059</ele>
        <time>2021-06-09T16:58:42+02:00</time>
      </trkpt>
      <trkpt lat="45.41767" lon="4.49054">
        <ele>1044</ele>
        <time>2021-06-09T16:58:47+02:00</time>
      </trkpt>
      <trkpt lat="45.41775" lon="4.4917">
        <ele>1022</ele>
        <time>2021-06-09T16:58:52+02:00</time>
      </trkpt>
      <trkpt lat="45.41796" lon="4.49322">
        <ele>999</ele>
        <time>2021-06-09T16:58:57+02:00</time>
      </trkpt>
      <trkpt lat="45.4185" lon="4.49459">
        <ele>973</ele>
        <time>2021-06-09T16:59:02+02:00</time>
      </trkpt>
      <trkpt lat="45.41824" lon="4.49571">
        <ele>944</ele>
        <time>2021-06-09T16:59:07+02:00</time>
      </trkpt>
      <trkpt lat="45.41913" lon="4.49637">
        <ele>932</ele>
        <time>2021-06-09T16:59:12+02:00</time>
      </trkpt>
      <trkpt lat="45.4194" lon="4.49693">
        <ele>920</ele>
        <time>2021-06-09T16:59:17+02:00</time>
      </trkpt>
      <trkpt lat="45.41934" lon="4.49597">
        <ele>937</ele>
        <time>2021-06-09T16:59:22+02:00</time>
      </trkpt>
      <trkpt lat="45.41925" lon="4.49434">
        <ele>965</ele>
        <time>2021-06-09T16:59:27+02:00</time>
      </trkpt>
      <trkpt lat="45.41955" lon="4.49206">
        <ele>980</ele>
        <time>2021-06-09T16:59:32+02:00</time>
      </trkpt>
      <trkpt lat="45.41981" lon="4.48996">
        <ele>1001</ele>
        <time>2021-06-09T16:59:37+02:00</time>
      </trkpt>
      <trkpt lat="45.42037" lon="4.48871">
        <ele>1005</ele>
        <time>2021-06-09T16:59:42+02:00</time>
      </trkpt>
      <trkpt lat="45.42082" lon="4.4879">
        <ele>1004</ele>
        <time>2021-06-09T16:59:47+02:00</time>
      </trkpt>
      <trkpt lat="45.42068" lon="4.48708">
        <ele>1007</ele>
        <time>2021-06-09T16:59:52+02:00</time>
      </trkpt>
      <trkpt lat="45.42049" lon="4.48642">
        <ele>1006</ele>
        <time>2021-06-09T16:59:57+02:00</time>
      </trkpt>
      <trkpt lat="45.42029" lon="4.48573">
        <ele>1001</ele>
        <time>2021-06-09T17:00:02+02:00</time>
      </trkpt>
      <trkpt lat="45.41982" lon="4.48509">
        <ele>1000</ele>
        <time>2021-06-09T17:00:07+02:00</time>
      </trkpt>
      <trkpt lat="45.41925" lon="4.48472">
        <ele>1005</ele>
        <time>2021-06-09T17:00:12+02:00</time>
      </trkpt>
      <trkpt lat="45.41859" lon="4.48457">
        <ele>1016</ele>
        <time>2021-06-09T17:00:17+02:00</time>
      </trkpt>
      <trkpt lat="45.41815" lon="4.48391">
        <ele>1021</ele>
        <time>2021-06-09T17:00:22+02:00</time>
      </trkpt>
      <trkpt lat="45.41738" lon="4.48234">
        <ele>1043</ele>
        <time>2021-06-09T17:00:27+02:00</time>
      </trkpt>
      <trkpt lat="45.41713" lon="4.48163">
        <ele>1054</ele>
        <time>2021-06-09T17:00:32+02:00</time>
      </trkpt>
      <trkpt lat="45.41734" lon="4.48086">
        <ele>1057</ele>
        <time>2021-06-09T17:00:37+02:00</time>
      </trkpt>
      <trkpt lat="45.41808" lon="4.47998">
        <ele>1052</ele>
        <time>2021-06-09T17:00:42+02:00</time>
      </trkpt>
      <trkpt lat="45.41909" lon="4.47947">
        <ele>1033</ele>
        <time>2021-06-09T17:00:47+02:00</time>
      </trkpt>
      <trkpt lat="45.42025" lon="4.47899">
        <ele>1012</ele>
        <time>2021-06-09T17:00:52+02:00</time>
      </trkpt>
      <trkpt lat="45.4212" lon="4.47708">
        <ele>981</ele>
        <time>2021-06-09T17:00:57+02:00</time>
      </trkpt>
      <trkpt lat="45.4222" lon="4.47532">
        <ele>962</ele>
        <time>2021-06-09T17:01:02+02:00</time>
      </trkpt>
      <trkpt lat="45.42177" lon="4.47526">
        <ele>960</ele>
        <time>2021-06-09T17:01:07+02:00</time>
      </trkpt>
      <trkpt lat="45.41993" lon="4.47623">
        <ele>965</ele>
        <time>2021-06-09T17:01:12+02:00</time>
      </trkpt>
      <trkpt lat="45.41925" lon="4.4761">
        <ele>967</ele>
        <time>2021-06-09T17:01:17+02:00</time>
      </trkpt>
      <trkpt lat="45.41882" lon="4.47558">
        <ele>964</ele>
        <time>2021-06-09T17:01:22+02:00</time>
      </trkpt>
      <trkpt lat="45.41796" lon="4.47397">
        <ele>953</ele>
        <time>2021-06-09T17:01:27+02:00</time>
      </trkpt>
      <trkpt lat="45.41684" lon="4.4732">
        <ele>953</ele>
        <time>2021-06-09T17:01:32+02:00</time>
      </trkpt>
      <trkpt lat="45.41588" lon="4.47344">
        <ele>959</ele>
        <time>2021-06-09T17:01:37+02:00</time>
      </trkpt>
      <trkpt lat="45.41424" lon="4.47462">
        <ele>960</ele>
        <time>2021-06-09T17:01:42+02:00</time>
      </trkpt>
      <trkpt lat="45.41354" lon="4.47384">
        <ele>962</ele>
        <time>2021-06-09T17:01:47+02:00</time>
      </trkpt>
      <trkpt lat="45.41297" lon="4.47391">
        <ele>969</ele>
        <time>2021-06-09T17:01:52+02:00</time>
      </trkpt>
      <trkpt lat="45.41174" lon="4.47423">
        <ele>981</ele>
        <time>2021-06-09T17:01:57+02:00</time>
      </trkpt>
      <trkpt lat="45.41052" lon="4.47419">
        <ele>980</ele>
        <time>2021-06-09T17:02:02+02:00</time>
      </trkpt>
      <trkpt lat="45.41" lon="4.47447">
        <ele>985</ele>
        <time>2021-06-09T17:02:07+02:00</time>
      </trkpt>
      <trkpt lat="45.40901" lon="4.47459">
        <ele>998</ele>
        <time>2021-06-09T17:02:12+02:00</time>
      </trkpt>
      <trkpt lat="45.4089" lon="4.47344">
        <ele>991</ele>
        <time>2021-06-09T17:02:17+02:00</time>
      </trkpt>
      <trkpt lat="45.40881" lon="4.47273">
        <ele>987</ele>
        <time>2021-06-09T17:02:22+02:00</time>
      </trkpt>
      <trkpt lat="45.40854" lon="4.47228">
        <ele>987</ele>
        <time>2021-06-09T17:02:27+02:00</time>
      </trkpt>
      <trkpt lat="45.40817" lon="4.47202">
        <ele>988</ele>
        <time>2021-06-09T17:02:32+02:00</time>
      </trkpt>
      <trkpt lat="45.4068" lon="4.47183">
        <ele>999</ele>
        <time>2021-06-09T17:02:37+02:00</time>
      </trkpt>
      <trkpt lat="45.40526" lon="4.47159">
        <ele>1001</ele>
        <time>2021-06-09T17:02:42+02:00</time>
      </trkpt>
      <trkpt lat="45.40404" lon="4.47189">
        <ele>994</ele>
        <time>2021-06-09T17:02:47+02:00</time>
      </trkpt>
      <trkpt lat="45.40333" lon="4.47226">
        <ele>989</ele>
        <time>2021-06-09T17:02:52+02:00</time>
      </trkpt>
      <trkpt lat="45.40235" lon="4.47232">
        <ele>993</ele>
        <time>2021-06-09T17:02:57+02:00</time>
      </trkpt>
      <trkpt lat="45.40179" lon="4.47253">
        <ele>1002</ele>
        <time>2021-06-09T17:03:02+02:00</time>
      </trkpt>
      <trkpt lat="45.40133" lon="4.47241">
        <ele>1013</ele>
        <time>2021-06-09T17:03:07+02:00</time>
      </trkpt>
      <trkpt lat="45.40136" lon="4.47161">
        <ele>1014</ele>
        <time>2021-06-09T17:03:12+02:00</time>
      </trkpt>
      <trkpt lat="45.40148" lon="4.47101">
        <ele>1017</ele>
        <time>2021-06-09T17:03:17+02:00</time>
      </trkpt>
      <trkpt lat="45.40115" lon="4.47015">
        <ele>1032</ele>
        <time>2021-06-09T17:03:22+02:00</time>
      </trkpt>
      <trkpt lat="45.4013" lon="4.4699">
        <ele>1033</ele>
        <time>2021-06-09T17:03:27+02:00</time>
      </trkpt>
      <trkpt lat="45.40181" lon="4.46972">
        <ele>1026</ele>
        <time>2021-06-09T17:03:32+02:00</time>
      </trkpt>
      <trkpt lat="45.40199" lon="4.4694">
        <ele>1028</ele>
        <time>2021-06-09T17:03:37+02:00</time>
      </trkpt>
      <trkpt lat="45.40243" lon="4.46803">
        <ele>1039</ele>
        <time>2021-06-09T17:03:42+02:00</time>
      </trkpt>
      <trkpt lat="45.40261" lon="4.46743">
        <ele>1042</ele>
        <time>2021-06-09T17:03:47+02:00</time>
      </trkpt>
      <trkpt lat="45.40333" lon="4.46635">
        <ele>1040</ele>
        <time>2021-06-09T17:03:52+02:00</time>
      </trkpt>
      <trkpt lat="45.40401" lon="4.46575">
        <ele>1043</ele>
        <time>2021-06-09T17:03:57+02:00</time>
      </trkpt>
      <trkpt lat="45.40512" lon="4.46575">
        <ele>1043</ele>
        <time>2021-06-09T17:04:02+02:00</time>
      </trkpt>
      <trkpt lat="45.40607" lon="4.46584">
        <ele>1045</ele>
        <time>2021-06-09T17:04:07+02:00</time>
      </trkpt>
      <trkpt lat="45.40681" lon="4.4658">
        <ele>1045</ele>
        <time>2021-06-09T17:04:12+02:00</time>
      </trkpt>
      <trkpt lat="45.40677" lon="4.46556">
        <ele>1049</ele>
        <time>2021-06-09T17:04:17+02:00</time>
      </trkpt>
      <trkpt lat="45.40648" lon="4.46543">
        <ele>1051</ele>
        <time>2021-06-09T17:04:22+02:00</time>
      </trkpt>
      <trkpt lat="45.40564" lon="4.46517">
        <ele>1053</ele>
        <time>2021-06-09T17:04:27+02:00</time>
      </trkpt>
      <trkpt lat="45.40431" lon="4.46477">
        <ele>1050</ele>
        <time>2021-06-09T17:04:32+02:00</time>
      </trkpt>
      <trkpt lat="45.40312" lon="4.46487">
        <ele>1051</ele>
        <time>2021-06-09T17:04:37+02:00</time>
      </trkpt>
      <trkpt lat="45.4025" lon="4.46496">
        <ele>1054</ele>
        <time>2021-06-09T17:04:42+02:00</time>
      </trkpt>
      <trkpt lat="45.40149" lon="4.4647">
        <ele>1058</ele>
        <time>2021-06-09T17:04:47+02:00</time>
      </trkpt>
      <trkpt lat="45.40062" lon="4.4644">
        <ele>1062</ele>
        <time>2021-06-09T17:04:52+02:00</time>
      </trkpt>
      <trkpt lat="45.40011" lon="4.4641">
        <ele>1063</ele>
        <time>2021-06-09T17:04:57+02:00</time>
      </trkpt>
      <trkpt lat="45.39895" lon="4.46333">
        <ele>1066</ele>
        <time>2021-06-09T17:05:02+02:00</time>
      </trkpt>
      <trkpt lat="45.3987" lon="4.46318">
        <ele>1063</ele>
        <time>2021-06-09T17:05:07+02:00</time>
      </trkpt>
      <trkpt lat="45.39837" lon="4.46329">
        <ele>1062</ele>
        <time>2021-06-09T17:05:12+02:00</time>
      </trkpt>
      <trkpt lat="45.39812" lon="4.46399">
        <ele>1075</ele>
        <time>2021-06-09T17:05:17+02:00</time>
      </trkpt>
      <trkpt lat="45.39715" lon="4.46438">
        <ele>1081</ele>
        <time>2021-06-09T17:05:22+02:00</time>
      </trkpt>
      <trkpt lat="45.39569" lon="4.46492">
        <ele>1083</ele>
        <time>2021-06-09T17:05:27+02:00</time>
      </trkpt>
      <trkpt lat="45.39506" lon="4.46552">
        <ele>1086</ele>
        <time>2021-06-09T17:05:32+02:00</time>
      </trkpt>
      <trkpt lat="45.39415" lon="4.46859">
        <ele>1085</ele>
        <time>2021-06-09T17:05:37+02:00</time>
      </trkpt>
      <trkpt lat="45.39387" lon="4.46929">
        <ele>1086</ele>
        <time>2021-06-09T17:05:42+02:00</time>
      </trkpt>
      <trkpt lat="45.39283" lon="4.47011">
        <ele>1085</ele>
        <time>2021-06-09T17:05:47+02:00</time>
      </trkpt>
      <trkpt lat="45.39256" lon="4.47054">
        <ele>1083</ele>
        <time>2021-06-09T17:05:52+02:00</time>
      </trkpt>
      <trkpt lat="45.39244" lon="4.47165">
        <ele>1080</ele>
        <time>2021-06-09T17:05:57+02:00</time>
      </trkpt>
      <trkpt lat="45.39248" lon="4.47305">
        <ele>1087</ele>
        <time>2021-06-09T17:06:02+02:00</time>
      </trkpt>
      <trkpt lat="45.39235" lon="4.47459">
        <ele>1084</ele>
        <time>2021-06-09T17:06:07+02:00</time>
      </trkpt>
      <trkpt lat="45.39203" lon="4.47689">
        <ele>1073</ele>
        <time>2021-06-09T17:06:12+02:00</time>
      </trkpt>
      <trkpt lat="45.39165" lon="4.47822">
        <ele>1066</ele>
        <time>2021-06-09T17:06:17+02:00</time>
      </trkpt>
      <trkpt lat="45.39158" lon="4.47932">
        <ele>1055</ele>
        <time>2021-06-09T17:06:22+02:00</time>
      </trkpt>
      <trkpt lat="45.39143" lon="4.47985">
        <ele>1050</ele>
        <time>2021-06-09T17:06:27+02:00</time>
      </trkpt>
      <trkpt lat="45.39067" lon="4.48099">
        <ele>1043</ele>
        <time>2021-06-09T17:06:32+02:00</time>
      </trkpt>
      <trkpt lat="45.39082" lon="4.48099">
        <ele>1044</ele>
        <time>2021-06-09T17:06:37+02:00</time>
      </trkpt>
    </trkseg>
  </trk>
</gpx>